sensor_id;sensor_type;location;lat;lon;timestamp;P1;durP1;ratioP1;P2;durP2;ratioP2
37407;SDS011;24866;50.248;8.252;2024-01-30T00:00:34;21.70;;;12.80;;
37407;SDS011;24866;50.248;8.252;2024-01-30T00:03:06;23.38;;;13.98;;
37407;SDS011;24866;50.248;8.252;2024-01-30T00:05:36;19.38;;;12.40;;
37407;SDS011;24866;50.248;8.252;2024-01-30T00:08:06;22.67;;;13.32;;
37407;SDS011;24866;50.248;8.252;2024-01-30T00:10:36;24.63;;;13.07;;
37407;SDS011;24866;50.248;8.252;2024-01-30T00:13:06;20.90;;;13.30;;
37407;SDS011;24866;50.248;8.252;2024-01-30T00:15:36;23.17;;;13.43;;
37407;SDS011;24866;50.248;8.252;2024-01-30T00:18:08;22.45;;;13.57;;
37407;SDS011;24866;50.248;8.252;2024-01-30T00:20:39;19.25;;;13.38;;
37407;SDS011;24866;50.248;8.252;2024-01-30T00:23:09;20.40;;;13.77;;
37407;SDS011;24866;50.248;8.252;2024-01-30T00:25:39;20.88;;;12.90;;
37407;SDS011;24866;50.248;8.252;2024-01-30T00:28:09;18.92;;;12.05;;
37407;SDS011;24866;50.248;8.252;2024-01-30T00:30:39;22.88;;;12.93;;
37407;SDS011;24866;50.248;8.252;2024-01-30T00:33:11;20.67;;;12.93;;
37407;SDS011;24866;50.248;8.252;2024-01-30T00:35:41;18.55;;;12.38;;
37407;SDS011;24866;50.248;8.252;2024-01-30T00:38:11;21.88;;;12.80;;
37407;SDS011;24866;50.248;8.252;2024-01-30T00:40:41;21.48;;;12.77;;
37407;SDS011;24866;50.248;8.252;2024-01-30T00:43:11;18.77;;;11.15;;
37407;SDS011;24866;50.248;8.252;2024-01-30T00:45:41;20.02;;;11.70;;
37407;SDS011;24866;50.248;8.252;2024-01-30T00:48:14;18.58;;;11.07;;
37407;SDS011;24866;50.248;8.252;2024-01-30T00:50:44;19.55;;;11.20;;
37407;SDS011;24866;50.248;8.252;2024-01-30T00:53:14;17.40;;;9.45;;
37407;SDS011;24866;50.248;8.252;2024-01-30T00:55:44;16.52;;;9.40;;
37407;SDS011;24866;50.248;8.252;2024-01-30T00:58:15;15.48;;;9.50;;
37407;SDS011;24866;50.248;8.252;2024-01-30T01:00:47;14.65;;;9.77;;
37407;SDS011;24866;50.248;8.252;2024-01-30T01:03:18;13.38;;;8.98;;
37407;SDS011;24866;50.248;8.252;2024-01-30T01:05:49;16.55;;;10.07;;
37407;SDS011;24866;50.248;8.252;2024-01-30T01:08:19;15.35;;;9.10;;
37407;SDS011;24866;50.248;8.252;2024-01-30T01:10:49;15.00;;;9.32;;
37407;SDS011;24866;50.248;8.252;2024-01-30T01:13:19;14.63;;;9.18;;
37407;SDS011;24866;50.248;8.252;2024-01-30T01:15:50;15.50;;;9.40;;
37407;SDS011;24866;50.248;8.252;2024-01-30T01:18:22;16.17;;;10.35;;
37407;SDS011;24866;50.248;8.252;2024-01-30T01:20:52;19.55;;;10.15;;
37407;SDS011;24866;50.248;8.252;2024-01-30T01:23:23;19.67;;;10.75;;
37407;SDS011;24866;50.248;8.252;2024-01-30T01:25:53;15.60;;;10.23;;
37407;SDS011;24866;50.248;8.252;2024-01-30T01:28:23;19.50;;;10.73;;
37407;SDS011;24866;50.248;8.252;2024-01-30T01:30:53;17.73;;;10.57;;
37407;SDS011;24866;50.248;8.252;2024-01-30T01:33:28;15.02;;;9.55;;
37407;SDS011;24866;50.248;8.252;2024-01-30T01:36:00;14.88;;;9.02;;
37407;SDS011;24866;50.248;8.252;2024-01-30T01:38:30;15.52;;;9.15;;
37407;SDS011;24866;50.248;8.252;2024-01-30T01:41:00;14.60;;;9.55;;
37407;SDS011;24866;50.248;8.252;2024-01-30T01:43:30;16.80;;;9.07;;
37407;SDS011;24866;50.248;8.252;2024-01-30T01:46:01;13.35;;;9.30;;
37407;SDS011;24866;50.248;8.252;2024-01-30T01:48:32;13.23;;;8.27;;
37407;SDS011;24866;50.248;8.252;2024-01-30T01:51:02;19.45;;;11.45;;
37407;SDS011;24866;50.248;8.252;2024-01-30T01:53:32;21.70;;;12.48;;
37407;SDS011;24866;50.248;8.252;2024-01-30T01:56:03;19.95;;;12.90;;
37407;SDS011;24866;50.248;8.252;2024-01-30T01:58:33;19.42;;;12.02;;
37407;SDS011;24866;50.248;8.252;2024-01-30T02:01:03;19.13;;;12.98;;
37407;SDS011;24866;50.248;8.252;2024-01-30T02:03:35;18.40;;;11.63;;
37407;SDS011;24866;50.248;8.252;2024-01-30T02:06:06;17.58;;;10.43;;
37407;SDS011;24866;50.248;8.252;2024-01-30T02:08:36;16.77;;;10.07;;
37407;SDS011;24866;50.248;8.252;2024-01-30T02:11:07;18.05;;;10.32;;
37407;SDS011;24866;50.248;8.252;2024-01-30T02:13:38;17.33;;;9.95;;
37407;SDS011;24866;50.248;8.252;2024-01-30T02:16:08;14.70;;;9.85;;
37407;SDS011;24866;50.248;8.252;2024-01-30T02:18:39;13.23;;;9.05;;
37407;SDS011;24866;50.248;8.252;2024-01-30T02:21:15;14.77;;;9.45;;
37407;SDS011;24866;50.248;8.252;2024-01-30T02:23:46;13.48;;;8.65;;
37407;SDS011;24866;50.248;8.252;2024-01-30T02:26:16;14.60;;;8.55;;
37407;SDS011;24866;50.248;8.252;2024-01-30T02:28:46;16.05;;;9.77;;
37407;SDS011;24866;50.248;8.252;2024-01-30T02:31:16;14.82;;;9.10;;
37407;SDS011;24866;50.248;8.252;2024-01-30T02:33:47;18.83;;;9.15;;
37407;SDS011;24866;50.248;8.252;2024-01-30T02:36:18;15.63;;;9.35;;
37407;SDS011;24866;50.248;8.252;2024-01-30T02:38:48;12.38;;;8.45;;
37407;SDS011;24866;50.248;8.252;2024-01-30T02:41:18;15.93;;;8.18;;
37407;SDS011;24866;50.248;8.252;2024-01-30T02:43:49;12.73;;;8.02;;
37407;SDS011;24866;50.248;8.252;2024-01-30T02:46:19;13.27;;;8.07;;
37407;SDS011;24866;50.248;8.252;2024-01-30T02:48:49;15.32;;;8.95;;
37407;SDS011;24866;50.248;8.252;2024-01-30T02:51:21;15.57;;;8.05;;
37407;SDS011;24866;50.248;8.252;2024-01-30T02:53:51;19.60;;;10.07;;
37407;SDS011;24866;50.248;8.252;2024-01-30T02:56:21;15.43;;;9.85;;
37407;SDS011;24866;50.248;8.252;2024-01-30T02:58:51;16.38;;;8.90;;
37407;SDS011;24866;50.248;8.252;2024-01-30T03:01:21;17.73;;;9.25;;
37407;SDS011;24866;50.248;8.252;2024-01-30T03:03:52;18.60;;;10.38;;
37407;SDS011;24866;50.248;8.252;2024-01-30T03:06:24;17.40;;;10.10;;
37407;SDS011;24866;50.248;8.252;2024-01-30T03:08:54;14.82;;;9.80;;
37407;SDS011;24866;50.248;8.252;2024-01-30T03:11:24;15.20;;;9.30;;
37407;SDS011;24866;50.248;8.252;2024-01-30T03:13:54;14.45;;;9.18;;
37407;SDS011;24866;50.248;8.252;2024-01-30T03:16:24;18.67;;;9.63;;
37407;SDS011;24866;50.248;8.252;2024-01-30T03:18:54;14.75;;;9.13;;
37407;SDS011;24866;50.248;8.252;2024-01-30T03:21:25;19.23;;;11.48;;
37407;SDS011;24866;50.248;8.252;2024-01-30T03:23:56;17.20;;;11.50;;
37407;SDS011;24866;50.248;8.252;2024-01-30T03:26:26;18.70;;;11.68;;
37407;SDS011;24866;50.248;8.252;2024-01-30T03:28:56;19.20;;;12.18;;
37407;SDS011;24866;50.248;8.252;2024-01-30T03:31:26;23.38;;;12.95;;
37407;SDS011;24866;50.248;8.252;2024-01-30T03:33:57;18.20;;;11.90;;
37407;SDS011;24866;50.248;8.252;2024-01-30T03:36:28;23.02;;;14.10;;
37407;SDS011;24866;50.248;8.252;2024-01-30T03:39:01;27.95;;;14.75;;
37407;SDS011;24866;50.248;8.252;2024-01-30T03:41:31;23.23;;;13.80;;
37407;SDS011;24866;50.248;8.252;2024-01-30T03:44:01;21.70;;;13.15;;
37407;SDS011;24866;50.248;8.252;2024-01-30T03:46:31;23.33;;;13.77;;
37407;SDS011;24866;50.248;8.252;2024-01-30T03:49:01;23.67;;;14.65;;
37407;SDS011;24866;50.248;8.252;2024-01-30T03:51:33;21.63;;;13.43;;
37407;SDS011;24866;50.248;8.252;2024-01-30T03:54:03;20.50;;;14.05;;
37407;SDS011;24866;50.248;8.252;2024-01-30T03:56:33;24.80;;;14.93;;
37407;SDS011;24866;50.248;8.252;2024-01-30T03:59:03;24.20;;;15.45;;
37407;SDS011;24866;50.248;8.252;2024-01-30T04:01:33;24.80;;;15.02;;
37407;SDS011;24866;50.248;8.252;2024-01-30T04:04:03;23.58;;;15.07;;
37407;SDS011;24866;50.248;8.252;2024-01-30T04:06:35;24.70;;;15.75;;
37407;SDS011;24866;50.248;8.252;2024-01-30T04:09:05;26.37;;;14.17;;
37407;SDS011;24866;50.248;8.252;2024-01-30T04:11:35;24.88;;;15.25;;
37407;SDS011;24866;50.248;8.252;2024-01-30T04:14:05;23.63;;;15.18;;
37407;SDS011;24866;50.248;8.252;2024-01-30T04:16:35;22.73;;;14.55;;
37407;SDS011;24866;50.248;8.252;2024-01-30T04:19:05;22.20;;;13.93;;
37407;SDS011;24866;50.248;8.252;2024-01-30T04:21:36;19.88;;;13.93;;
37407;SDS011;24866;50.248;8.252;2024-01-30T04:24:06;22.27;;;14.23;;
37407;SDS011;24866;50.248;8.252;2024-01-30T04:26:37;23.65;;;15.63;;
37407;SDS011;24866;50.248;8.252;2024-01-30T04:29:07;21.00;;;13.07;;
37407;SDS011;24866;50.248;8.252;2024-01-30T04:31:37;23.00;;;13.25;;
37407;SDS011;24866;50.248;8.252;2024-01-30T04:34:07;22.02;;;13.82;;
37407;SDS011;24866;50.248;8.252;2024-01-30T04:36:39;19.30;;;12.10;;
37407;SDS011;24866;50.248;8.252;2024-01-30T04:39:09;20.67;;;13.15;;
37407;SDS011;24866;50.248;8.252;2024-01-30T04:41:39;19.45;;;12.05;;
37407;SDS011;24866;50.248;8.252;2024-01-30T04:44:09;15.95;;;10.38;;
37407;SDS011;24866;50.248;8.252;2024-01-30T04:46:39;19.17;;;12.18;;
37407;SDS011;24866;50.248;8.252;2024-01-30T04:49:09;18.77;;;12.27;;
37407;SDS011;24866;50.248;8.252;2024-01-30T04:51:41;17.63;;;10.88;;
37407;SDS011;24866;50.248;8.252;2024-01-30T04:54:11;16.92;;;11.93;;
37407;SDS011;24866;50.248;8.252;2024-01-30T04:56:41;17.40;;;11.75;;
37407;SDS011;24866;50.248;8.252;2024-01-30T04:59:11;16.08;;;11.27;;
37407;SDS011;24866;50.248;8.252;2024-01-30T05:01:42;16.83;;;11.13;;
37407;SDS011;24866;50.248;8.252;2024-01-30T05:04:12;14.32;;;9.65;;
37407;SDS011;24866;50.248;8.252;2024-01-30T05:06:43;16.13;;;9.43;;
37407;SDS011;24866;50.248;8.252;2024-01-30T05:09:13;16.08;;;9.60;;
37407;SDS011;24866;50.248;8.252;2024-01-30T05:11:44;17.52;;;11.02;;
37407;SDS011;24866;50.248;8.252;2024-01-30T05:14:14;16.83;;;11.05;;
37407;SDS011;24866;50.248;8.252;2024-01-30T05:16:44;20.35;;;11.20;;
37407;SDS011;24866;50.248;8.252;2024-01-30T05:19:15;17.08;;;10.45;;
37407;SDS011;24866;50.248;8.252;2024-01-30T05:21:48;18.67;;;10.82;;
37407;SDS011;24866;50.248;8.252;2024-01-30T05:24:18;17.85;;;10.65;;
37407;SDS011;24866;50.248;8.252;2024-01-30T05:26:48;17.80;;;9.38;;
37407;SDS011;24866;50.248;8.252;2024-01-30T05:29:19;16.05;;;9.55;;
37407;SDS011;24866;50.248;8.252;2024-01-30T05:31:49;15.70;;;10.05;;
37407;SDS011;24866;50.248;8.252;2024-01-30T05:34:19;14.18;;;9.15;;
37407;SDS011;24866;50.248;8.252;2024-01-30T05:36:51;17.88;;;10.77;;
37407;SDS011;24866;50.248;8.252;2024-01-30T05:39:21;17.45;;;10.75;;
37407;SDS011;24866;50.248;8.252;2024-01-30T05:41:51;18.25;;;9.82;;
37407;SDS011;24866;50.248;8.252;2024-01-30T05:44:21;18.40;;;10.98;;
37407;SDS011;24866;50.248;8.252;2024-01-30T05:46:51;20.85;;;12.88;;
37407;SDS011;24866;50.248;8.252;2024-01-30T05:49:22;18.52;;;12.38;;
37407;SDS011;24866;50.248;8.252;2024-01-30T05:51:53;22.30;;;13.25;;
37407;SDS011;24866;50.248;8.252;2024-01-30T05:54:23;22.25;;;13.45;;
37407;SDS011;24866;50.248;8.252;2024-01-30T05:56:54;32.42;;;17.23;;
37407;SDS011;24866;50.248;8.252;2024-01-30T05:59:23;26.63;;;16.52;;
37407;SDS011;24866;50.248;8.252;2024-01-30T06:01:53;23.30;;;15.00;;
37407;SDS011;24866;50.248;8.252;2024-01-30T06:04:24;25.25;;;16.30;;
37407;SDS011;24866;50.248;8.252;2024-01-30T06:06:55;25.52;;;15.38;;
37407;SDS011;24866;50.248;8.252;2024-01-30T06:09:25;31.10;;;19.58;;
37407;SDS011;24866;50.248;8.252;2024-01-30T06:11:55;34.03;;;21.60;;
37407;SDS011;24866;50.248;8.252;2024-01-30T06:14:25;42.63;;;20.02;;
37407;SDS011;24866;50.248;8.252;2024-01-30T06:16:56;24.25;;;16.10;;
37407;SDS011;24866;50.248;8.252;2024-01-30T06:19:26;22.75;;;15.20;;
37407;SDS011;24866;50.248;8.252;2024-01-30T06:21:59;26.40;;;16.95;;
37407;SDS011;24866;50.248;8.252;2024-01-30T06:24:29;26.27;;;15.65;;
37407;SDS011;24866;50.248;8.252;2024-01-30T06:26:59;21.83;;;14.25;;
37407;SDS011;24866;50.248;8.252;2024-01-30T06:29:29;29.27;;;16.83;;
37407;SDS011;24866;50.248;8.252;2024-01-30T06:31:59;33.50;;;19.30;;
37407;SDS011;24866;50.248;8.252;2024-01-30T06:34:29;28.05;;;17.95;;
37407;SDS011;24866;50.248;8.252;2024-01-30T06:37:01;26.77;;;17.02;;
37407;SDS011;24866;50.248;8.252;2024-01-30T06:39:31;24.73;;;16.97;;
37407;SDS011;24866;50.248;8.252;2024-01-30T06:42:01;32.47;;;16.52;;
37407;SDS011;24866;50.248;8.252;2024-01-30T06:44:32;27.33;;;15.90;;
37407;SDS011;24866;50.248;8.252;2024-01-30T06:47:02;25.30;;;15.68;;
37407;SDS011;24866;50.248;8.252;2024-01-30T06:49:32;24.70;;;15.18;;
37407;SDS011;24866;50.248;8.252;2024-01-30T06:52:04;29.48;;;17.15;;
37407;SDS011;24866;50.248;8.252;2024-01-30T06:54:34;33.03;;;16.53;;
37407;SDS011;24866;50.248;8.252;2024-01-30T06:57:04;25.60;;;16.40;;
37407;SDS011;24866;50.248;8.252;2024-01-30T06:59:37;27.17;;;16.85;;
37407;SDS011;24866;50.248;8.252;2024-01-30T07:02:11;26.88;;;16.02;;
37407;SDS011;24866;50.248;8.252;2024-01-30T07:04:41;32.13;;;15.82;;
37407;SDS011;24866;50.248;8.252;2024-01-30T07:07:13;27.10;;;16.77;;
37407;SDS011;24866;50.248;8.252;2024-01-30T07:09:43;25.85;;;15.98;;
37407;SDS011;24866;50.248;8.252;2024-01-30T07:12:13;27.52;;;16.00;;
37407;SDS011;24866;50.248;8.252;2024-01-30T07:14:44;25.35;;;15.73;;
37407;SDS011;24866;50.248;8.252;2024-01-30T07:17:14;24.35;;;16.52;;
37407;SDS011;24866;50.248;8.252;2024-01-30T07:19:44;31.40;;;16.42;;
37407;SDS011;24866;50.248;8.252;2024-01-30T07:22:15;24.40;;;16.10;;
37407;SDS011;24866;50.248;8.252;2024-01-30T07:24:46;25.88;;;16.60;;
37407;SDS011;24866;50.248;8.252;2024-01-30T07:27:17;30.88;;;17.83;;
37407;SDS011;24866;50.248;8.252;2024-01-30T07:29:47;24.35;;;15.52;;
37407;SDS011;24866;50.248;8.252;2024-01-30T07:32:17;29.95;;;17.25;;
37407;SDS011;24866;50.248;8.252;2024-01-30T07:34:48;26.77;;;16.92;;
37407;SDS011;24866;50.248;8.252;2024-01-30T07:37:19;32.70;;;17.40;;
37407;SDS011;24866;50.248;8.252;2024-01-30T07:39:49;25.65;;;17.80;;
37407;SDS011;24866;50.248;8.252;2024-01-30T07:42:19;29.05;;;18.55;;
37407;SDS011;24866;50.248;8.252;2024-01-30T07:44:50;31.92;;;18.30;;
37407;SDS011;24866;50.248;8.252;2024-01-30T07:47:20;26.83;;;17.70;;
37407;SDS011;24866;50.248;8.252;2024-01-30T07:49:50;26.38;;;16.95;;
37407;SDS011;24866;50.248;8.252;2024-01-30T07:52:22;29.25;;;18.10;;
37407;SDS011;24866;50.248;8.252;2024-01-30T07:54:52;23.80;;;15.90;;
37407;SDS011;24866;50.248;8.252;2024-01-30T07:57:23;25.80;;;17.27;;
37407;SDS011;24866;50.248;8.252;2024-01-30T07:59:53;26.35;;;16.20;;
37407;SDS011;24866;50.248;8.252;2024-01-30T08:02:25;29.33;;;17.50;;
37407;SDS011;24866;50.248;8.252;2024-01-30T08:04:55;24.75;;;15.82;;
37407;SDS011;24866;50.248;8.252;2024-01-30T08:07:27;25.73;;;16.42;;
37407;SDS011;24866;50.248;8.252;2024-01-30T08:09:57;25.17;;;16.08;;
37407;SDS011;24866;50.248;8.252;2024-01-30T08:12:28;26.65;;;16.25;;
37407;SDS011;24866;50.248;8.252;2024-01-30T08:14:58;26.00;;;18.15;;
37407;SDS011;24866;50.248;8.252;2024-01-30T08:17:28;23.05;;;16.35;;
37407;SDS011;24866;50.248;8.252;2024-01-30T08:19:58;26.38;;;15.85;;
37407;SDS011;24866;50.248;8.252;2024-01-30T08:22:30;25.30;;;15.88;;
37407;SDS011;24866;50.248;8.252;2024-01-30T08:25:00;22.02;;;15.45;;
37407;SDS011;24866;50.248;8.252;2024-01-30T08:27:30;21.73;;;14.93;;
37407;SDS011;24866;50.248;8.252;2024-01-30T08:30:01;23.17;;;14.20;;
37407;SDS011;24866;50.248;8.252;2024-01-30T08:32:31;24.23;;;15.00;;
37407;SDS011;24866;50.248;8.252;2024-01-30T08:35:01;20.17;;;13.93;;
37407;SDS011;24866;50.248;8.252;2024-01-30T08:37:34;21.00;;;13.35;;
37407;SDS011;24866;50.248;8.252;2024-01-30T08:40:04;21.27;;;13.30;;
37407;SDS011;24866;50.248;8.252;2024-01-30T08:42:36;20.90;;;13.30;;
37407;SDS011;24866;50.248;8.252;2024-01-30T08:45:06;19.80;;;14.00;;
37407;SDS011;24866;50.248;8.252;2024-01-30T08:47:37;17.48;;;12.50;;
37407;SDS011;24866;50.248;8.252;2024-01-30T08:50:08;19.23;;;12.30;;
37407;SDS011;24866;50.248;8.252;2024-01-30T08:52:39;17.10;;;12.10;;
37407;SDS011;24866;50.248;8.252;2024-01-30T08:55:10;22.93;;;13.90;;
37407;SDS011;24866;50.248;8.252;2024-01-30T08:57:40;16.98;;;11.00;;
37407;SDS011;24866;50.248;8.252;2024-01-30T09:00:11;20.60;;;11.82;;
37407;SDS011;24866;50.248;8.252;2024-01-30T09:02:41;19.08;;;11.35;;
37407;SDS011;24866;50.248;8.252;2024-01-30T09:05:12;17.45;;;11.45;;
37407;SDS011;24866;50.248;8.252;2024-01-30T09:07:44;17.95;;;11.02;;
37407;SDS011;24866;50.248;8.252;2024-01-30T09:10:15;20.05;;;10.25;;
37407;SDS011;24866;50.248;8.252;2024-01-30T09:12:45;17.50;;;10.98;;
37407;SDS011;24866;50.248;8.252;2024-01-30T09:15:16;19.27;;;11.18;;
37407;SDS011;24866;50.248;8.252;2024-01-30T09:17:47;15.65;;;10.73;;
37407;SDS011;24866;50.248;8.252;2024-01-30T09:20:17;16.90;;;11.23;;
37407;SDS011;24866;50.248;8.252;2024-01-30T09:22:50;14.75;;;9.57;;
37407;SDS011;24866;50.248;8.252;2024-01-30T09:25:20;18.17;;;11.18;;
37407;SDS011;24866;50.248;8.252;2024-01-30T09:27:51;15.20;;;10.50;;
37407;SDS011;24866;50.248;8.252;2024-01-30T09:30:21;17.92;;;11.45;;
37407;SDS011;24866;50.248;8.252;2024-01-30T09:32:52;20.02;;;10.73;;
37407;SDS011;24866;50.248;8.252;2024-01-30T09:35:22;17.20;;;11.77;;
37407;SDS011;24866;50.248;8.252;2024-01-30T09:37:54;15.90;;;10.35;;
37407;SDS011;24866;50.248;8.252;2024-01-30T09:40:25;15.95;;;11.02;;
37407;SDS011;24866;50.248;8.252;2024-01-30T09:42:56;16.90;;;12.05;;
37407;SDS011;24866;50.248;8.252;2024-01-30T09:45:29;14.93;;;10.43;;
37407;SDS011;24866;50.248;8.252;2024-01-30T09:48:00;17.15;;;10.50;;
37407;SDS011;24866;50.248;8.252;2024-01-30T09:50:30;17.77;;;11.40;;
37407;SDS011;24866;50.248;8.252;2024-01-30T09:53:03;14.07;;;10.48;;
37407;SDS011;24866;50.248;8.252;2024-01-30T09:55:34;16.58;;;10.48;;
37407;SDS011;24866;50.248;8.252;2024-01-30T09:58:05;14.95;;;10.68;;
37407;SDS011;24866;50.248;8.252;2024-01-30T10:00:36;20.33;;;11.00;;
37407;SDS011;24866;50.248;8.252;2024-01-30T10:03:06;15.18;;;10.05;;
37407;SDS011;24866;50.248;8.252;2024-01-30T10:05:37;14.90;;;9.90;;
37407;SDS011;24866;50.248;8.252;2024-01-30T10:08:12;15.77;;;9.82;;
37407;SDS011;24866;50.248;8.252;2024-01-30T10:10:42;16.20;;;9.13;;
37407;SDS011;24866;50.248;8.252;2024-01-30T10:13:15;16.75;;;9.75;;
37407;SDS011;24866;50.248;8.252;2024-01-30T10:15:47;14.85;;;10.02;;
37407;SDS011;24866;50.248;8.252;2024-01-30T10:18:17;13.25;;;8.65;;
37407;SDS011;24866;50.248;8.252;2024-01-30T10:20:48;18.13;;;8.85;;
37407;SDS011;24866;50.248;8.252;2024-01-30T10:23:20;15.18;;;9.05;;
37407;SDS011;24866;50.248;8.252;2024-01-30T10:25:51;13.75;;;9.18;;
37407;SDS011;24866;50.248;8.252;2024-01-30T10:28:21;13.90;;;9.00;;
37407;SDS011;24866;50.248;8.252;2024-01-30T10:30:57;13.90;;;9.00;;
37407;SDS011;24866;50.248;8.252;2024-01-30T10:33:28;16.45;;;9.20;;
37407;SDS011;24866;50.248;8.252;2024-01-30T10:35:59;14.15;;;9.02;;
37407;SDS011;24866;50.248;8.252;2024-01-30T10:38:32;12.45;;;8.88;;
37407;SDS011;24866;50.248;8.252;2024-01-30T10:43:35;13.98;;;8.70;;
37407;SDS011;24866;50.248;8.252;2024-01-30T10:46:06;13.05;;;8.82;;
37407;SDS011;24866;50.248;8.252;2024-01-30T10:51:10;13.07;;;8.47;;
37407;SDS011;24866;50.248;8.252;2024-01-30T10:53:43;11.75;;;8.30;;
37407;SDS011;24866;50.248;8.252;2024-01-30T10:56:15;12.40;;;8.45;;
37407;SDS011;24866;50.248;8.252;2024-01-30T10:58:46;15.60;;;9.07;;
37407;SDS011;24866;50.248;8.252;2024-01-30T11:01:17;15.43;;;9.05;;
37407;SDS011;24866;50.248;8.252;2024-01-30T11:03:47;14.98;;;9.40;;
37407;SDS011;24866;50.248;8.252;2024-01-30T11:06:18;17.85;;;9.23;;
37407;SDS011;24866;50.248;8.252;2024-01-30T11:09:01;11.68;;;8.35;;
37407;SDS011;24866;50.248;8.252;2024-01-30T11:11:47;14.65;;;9.93;;
37407;SDS011;24866;50.248;8.252;2024-01-30T11:14:22;15.13;;;8.88;;
37407;SDS011;24866;50.248;8.252;2024-01-30T11:16:56;12.38;;;9.23;;
37407;SDS011;24866;50.248;8.252;2024-01-30T11:19:30;16.05;;;9.30;;
37407;SDS011;24866;50.248;8.252;2024-01-30T11:22:01;15.23;;;8.05;;
37407;SDS011;24866;50.248;8.252;2024-01-30T11:24:38;11.60;;;8.15;;
37407;SDS011;24866;50.248;8.252;2024-01-30T11:27:09;11.75;;;7.93;;
37407;SDS011;24866;50.248;8.252;2024-01-30T11:29:39;12.07;;;7.65;;
37407;SDS011;24866;50.248;8.252;2024-01-30T11:32:10;10.88;;;7.57;;
37407;SDS011;24866;50.248;8.252;2024-01-30T11:34:40;15.27;;;9.80;;
37407;SDS011;24866;50.248;8.252;2024-01-30T11:37:11;11.93;;;8.20;;
37407;SDS011;24866;50.248;8.252;2024-01-30T11:39:44;11.00;;;7.18;;
37407;SDS011;24866;50.248;8.252;2024-01-30T11:42:15;10.98;;;6.75;;
37407;SDS011;24866;50.248;8.252;2024-01-30T11:44:46;12.00;;;7.30;;
37407;SDS011;24866;50.248;8.252;2024-01-30T11:47:17;10.95;;;6.32;;
37407;SDS011;24866;50.248;8.252;2024-01-30T11:49:47;10.48;;;6.40;;
37407;SDS011;24866;50.248;8.252;2024-01-30T11:52:18;11.27;;;6.22;;
37407;SDS011;24866;50.248;8.252;2024-01-30T11:54:50;10.00;;;6.32;;
37407;SDS011;24866;50.248;8.252;2024-01-30T11:57:20;12.00;;;6.40;;
37407;SDS011;24866;50.248;8.252;2024-01-30T11:59:51;20.30;;;9.38;;
37407;SDS011;24866;50.248;8.252;2024-01-30T12:02:21;11.65;;;7.65;;
37407;SDS011;24866;50.248;8.252;2024-01-30T12:04:51;8.95;;;6.07;;
37407;SDS011;24866;50.248;8.252;2024-01-30T12:07:22;10.82;;;6.97;;
37407;SDS011;24866;50.248;8.252;2024-01-30T12:09:54;13.27;;;7.05;;
37407;SDS011;24866;50.248;8.252;2024-01-30T12:12:25;11.07;;;6.20;;
37407;SDS011;24866;50.248;8.252;2024-01-30T12:14:56;9.45;;;6.45;;
37407;SDS011;24866;50.248;8.252;2024-01-30T12:17:28;9.43;;;5.18;;
37407;SDS011;24866;50.248;8.252;2024-01-30T12:20:05;9.55;;;5.18;;
37407;SDS011;24866;50.248;8.252;2024-01-30T12:22:36;11.77;;;5.93;;
37407;SDS011;24866;50.248;8.252;2024-01-30T12:25:09;8.93;;;5.10;;
37407;SDS011;24866;50.248;8.252;2024-01-30T12:27:42;7.85;;;4.93;;
37407;SDS011;24866;50.248;8.252;2024-01-30T12:30:13;9.93;;;6.15;;
37407;SDS011;24866;50.248;8.252;2024-01-30T12:32:44;8.95;;;5.25;;
37407;SDS011;24866;50.248;8.252;2024-01-30T12:35:15;8.90;;;5.38;;
37407;SDS011;24866;50.248;8.252;2024-01-30T12:37:46;9.27;;;6.00;;
37407;SDS011;24866;50.248;8.252;2024-01-30T12:40:17;10.35;;;6.38;;
37407;SDS011;24866;50.248;8.252;2024-01-30T12:42:47;11.00;;;7.65;;
37407;SDS011;24866;50.248;8.252;2024-01-30T12:45:18;11.25;;;5.63;;
37407;SDS011;24866;50.248;8.252;2024-01-30T12:47:50;7.63;;;5.63;;
37407;SDS011;24866;50.248;8.252;2024-01-30T12:50:20;14.90;;;6.60;;
37407;SDS011;24866;50.248;8.252;2024-01-30T12:52:51;9.88;;;6.10;;
37407;SDS011;24866;50.248;8.252;2024-01-30T12:55:23;9.30;;;5.55;;
37407;SDS011;24866;50.248;8.252;2024-01-30T12:57:56;9.35;;;6.30;;
37407;SDS011;24866;50.248;8.252;2024-01-30T13:00:26;11.32;;;5.57;;
37407;SDS011;24866;50.248;8.252;2024-01-30T13:02:57;10.23;;;5.80;;
37407;SDS011;24866;50.248;8.252;2024-01-30T13:05:28;11.68;;;5.88;;
37407;SDS011;24866;50.248;8.252;2024-01-30T13:07:58;9.10;;;5.50;;
37407;SDS011;24866;50.248;8.252;2024-01-30T13:10:30;10.63;;;6.53;;
37407;SDS011;24866;50.248;8.252;2024-01-30T13:13:00;11.30;;;6.20;;
37407;SDS011;24866;50.248;8.252;2024-01-30T13:15:31;9.18;;;5.93;;
37407;SDS011;24866;50.248;8.252;2024-01-30T13:18:02;15.88;;;9.77;;
37407;SDS011;24866;50.248;8.252;2024-01-30T13:20:33;15.65;;;9.32;;
37407;SDS011;24866;50.248;8.252;2024-01-30T13:23:04;12.88;;;7.85;;
37407;SDS011;24866;50.248;8.252;2024-01-30T13:25:36;15.98;;;8.15;;
37407;SDS011;24866;50.248;8.252;2024-01-30T13:28:06;11.00;;;6.50;;
37407;SDS011;24866;50.248;8.252;2024-01-30T13:30:36;11.63;;;7.60;;
37407;SDS011;24866;50.248;8.252;2024-01-30T13:33:07;9.45;;;7.00;;
37407;SDS011;24866;50.248;8.252;2024-01-30T13:35:38;13.95;;;7.13;;
37407;SDS011;24866;50.248;8.252;2024-01-30T13:38:08;10.07;;;6.13;;
37407;SDS011;24866;50.248;8.252;2024-01-30T13:40:39;10.50;;;7.15;;
37407;SDS011;24866;50.248;8.252;2024-01-30T13:43:09;8.32;;;5.85;;
37407;SDS011;24866;50.248;8.252;2024-01-30T13:45:40;12.40;;;6.32;;
37407;SDS011;24866;50.248;8.252;2024-01-30T13:48:11;10.43;;;6.25;;
37407;SDS011;24866;50.248;8.252;2024-01-30T13:50:41;10.75;;;7.00;;
37407;SDS011;24866;50.248;8.252;2024-01-30T13:53:11;11.13;;;5.85;;
37407;SDS011;24866;50.248;8.252;2024-01-30T13:55:43;9.52;;;6.07;;
37407;SDS011;24866;50.248;8.252;2024-01-30T13:58:13;13.15;;;7.32;;
37407;SDS011;24866;50.248;8.252;2024-01-30T14:00:43;9.85;;;6.68;;
37407;SDS011;24866;50.248;8.252;2024-01-30T14:03:13;11.40;;;6.60;;
37407;SDS011;24866;50.248;8.252;2024-01-30T14:05:43;13.02;;;6.82;;
37407;SDS011;24866;50.248;8.252;2024-01-30T14:08:14;11.00;;;6.95;;
37407;SDS011;24866;50.248;8.252;2024-01-30T14:10:46;11.80;;;7.13;;
37407;SDS011;24866;50.248;8.252;2024-01-30T14:13:17;10.48;;;6.65;;
37407;SDS011;24866;50.248;8.252;2024-01-30T14:15:47;11.68;;;6.53;;
37407;SDS011;24866;50.248;8.252;2024-01-30T14:18:18;11.38;;;7.20;;
37407;SDS011;24866;50.248;8.252;2024-01-30T14:20:48;16.13;;;8.75;;
37407;SDS011;24866;50.248;8.252;2024-01-30T14:23:19;12.07;;;7.72;;
37407;SDS011;24866;50.248;8.252;2024-01-30T14:25:51;12.65;;;7.68;;
37407;SDS011;24866;50.248;8.252;2024-01-30T14:28:22;10.77;;;6.82;;
37407;SDS011;24866;50.248;8.252;2024-01-30T14:30:52;9.05;;;6.18;;
37407;SDS011;24866;50.248;8.252;2024-01-30T14:33:23;13.35;;;6.45;;
37407;SDS011;24866;50.248;8.252;2024-01-30T14:35:54;12.77;;;6.43;;
37407;SDS011;24866;50.248;8.252;2024-01-30T14:38:25;9.60;;;6.00;;
37407;SDS011;24866;50.248;8.252;2024-01-30T14:40:58;9.48;;;6.18;;
37407;SDS011;24866;50.248;8.252;2024-01-30T14:43:28;10.97;;;6.90;;
37407;SDS011;24866;50.248;8.252;2024-01-30T14:45:59;14.45;;;7.72;;
37407;SDS011;24866;50.248;8.252;2024-01-30T14:48:29;12.35;;;7.60;;
37407;SDS011;24866;50.248;8.252;2024-01-30T14:50:59;12.15;;;6.90;;
37407;SDS011;24866;50.248;8.252;2024-01-30T14:53:30;12.43;;;7.47;;